aviador You're here:

MMSP Decoded Metar

SAN LUIS POTOSI in MEXICO
Report Time2018-04-26 12:45:00
UTC Time2018-04-26 13:21:16
Flight Rules mvfr MVFR
WindCalm
Visibility8047 m
Phenomena:N/A
Clouds:Broken 025 Hf
Overcast 080 Hf
Expected CloudBase > 400 ft AGL from Temp-Dew spread
Ceiling2,500 ft
Temp14°C (ISA +11)
Dew Point13°C (94% RH)
QNH1023 hPa
Density Alt7,461 ft
Elevation6,243 ft
Report Wrong Elevation
Raw Report
METAR COR MMSP 261245Z 00000KT 5SM BKN025 OVC080 14/13 A3022
RMK 60005 8/53/ HZY OCNL DROPS=

Extra information for MMSP:More info

Metar Taf Metar & Taf Last 4 Metars F.Rules Stats Wind Profile Meteogram Temp Stats Airport Information Weather charts Add Link Nearby VenuesMetar ALERT Operation Metar Decoded Social comments